Terminal Aerodrome Forecast
Issued by NWS

Home | Current Version | Previous Version | Text Only | Print | Product List | Glossary On
Versions: 1 2 3 4 5 6 7 8 9 10 11 12 13 14 15
000
FTUS45 KGJT 260544
TAFTEX
TAF
KTEX 260544Z 2606/2706 18006KT P6SM BKN250
     FM261700 24007KT P6SM VCSH SCT060 BKN150
     FM262100 25009KT P6SM -TSRASN BKN060CB
     FM262300 26008KT P6SM VCSH SCT050 BKN080
     FM270200 31006KT P6SM VCSH BKN080
     FM270500 21006KT P6SM VCSH BKN090=

USA.gov is the U.S. government's official web portal to all federal, state and local government web resources and services.